AirNav   Everest Fuels
 
 1688 users online  

KPMB Pembina Municipal Airport
Pembina, North Dakota, USA

GOING TO PEMBINA?


FAA INFORMATION EFFECTIVE 16 JULY 2020

Location

FAA Identifier: PMB
Lat/Long: 48-56-32.7000N 097-14-26.4000W
48-56.545000N 097-14.440000W
48.9424167,-97.2406667
(estimated)
Elevation: 795.8 ft. / 242.6 m (surveyed)
Variation: 03E (2015)
From city: 1 mile S of PEMBINA, ND
Time zone: UTC -5 (UTC -6 during Standard Time)
Zip code: 58271

Airport Operations

Airport use: Open to the public
Activation date: 08/1938
Control tower: no
ARTCC: MINNEAPOLIS CENTER
FSS: GRAND FORKS FLIGHT SERVICE STATION
NOTAMs facility: GFK (NOTAM-D service available)
Attendance: CONTINUOUS
FOR SVCS CTC AMGR 701-825-6615.
Wind indicator: lighted
Segmented circle: no
Lights: ACTVT MIRL RY 15/33 & PAPI RYS 15 & 33 - CTAF.
Beacon: white-green (lighted land airport)
Operates sunset to sunrise.
International operations: international airport of entry

Airport Communications

CTAF/UNICOM: 122.8
WX AWOS-3 at HCO (16 nm SE): 126.475 (218-843-2415)
WX AWOS-3 at 2C8 (18 nm SW): 118.275 (701-265-8050)
  • APCH/DEP SVC PRVDD BY MINNEAPOLIS ARTCC ON FREQS 132.15/269.6 (GRAND FORKS RCAG).

Nearby radio navigation aids

VOR radial/distance  VOR name  Freq  Var
HMLr303/6.6HUMBOLDT VORTAC112.4009E

Airport Services

Fuel available: 100LL
24 HR FUEL SVC PRVDD BY AMGR FUEL TRUCK.
Parking: hangars and tiedowns
Airframe service: MAJOR
Powerplant service: MAJOR

Runway Information

Runway 15/33

Dimensions: 3798 x 75 ft. / 1158 x 23 m
500 FT STOPWAY NORTH END.
Surface: asphalt, in good condition
Weight bearing capacity: 
Single wheel: 12.5
Runway edge lights: medium intensity
RUNWAY 15  RUNWAY 33
Latitude: 48-56.838908N48-56.252447N
Longitude: 097-14.602327W097-14.276483W
Elevation: 794.7 ft.795.5 ft.
Traffic pattern: leftleft
Runway heading: 157 magnetic, 160 true337 magnetic, 340 true
Markings: nonprecision, in good conditionnonprecision, in good condition
Visual slope indicator: 2-light PAPI on left (3.00 degrees glide path)2-light PAPI on left (3.00 degrees glide path)
Touchdown point: yes, no lightsyes, no lights

Airport Ownership and Management from official FAA records

Ownership: Publicly-owned
Owner: PEMBINA AIRPORT AUTH
10597 OLD HWY 81
PEMBINA, ND 58271
Phone 701-825-6615
CHAIRMAN OF ARPT AUTH; MARK HATLOY 701-520-1841
Manager: TERRY NORD
10597 OLD HWY 81
PEMBINA, ND 58271
Phone 701-331-4458

Airport Operational Statistics

Aircraft based on the field: 10
Single engine airplanes: 5
Multi engine airplanes: 4
Gliders airplanes: 1
    
Aircraft operations: avg 63/week *
61% local general aviation
30% transient general aviation
6% air taxi
3% military
* for 12-month period ending 26 August 2019

Additional Remarks

CFM WINTER CONDS AND SN REMOVAL BFR USE, CALL 701-331-4458 OR 701-825-6615.
RWY 15/33 TWY TO APRON MKD WITH REFLECTORS.
FOR CD CTC MINNEAPOLIS ARTCC AT 651-463-5588.

Instrument Procedures

NOTE: All procedures below are presented as PDF files. If you need a reader for these files, you should download the free Adobe Reader.

NOT FOR NAVIGATION. Please procure official charts for flight.
FAA instrument procedures published for use from 16 July 2020 at 0901Z to 13 August 2020 at 0900Z.

 
IAPs - Instrument Approach Procedures
RNAV (GPS) RWY 33   download (189KB)
VOR-A   download (180KB)
NOTE: Special Take-Off Minimums/Departure Procedures apply   download (156KB)

Other nearby airports with instrument procedures:

KHCO - Hallock Municipal Airport (16 nm SE)
2C8 - Cavalier Municipal Airport (18 nm SW)
96D - Walhalla Municipal Airport (26 nm W)
KGAF - Hutson Field Airport (33 nm S)
D55 - Robertson Field Airport (47 nm W)
 
Loc | Ops | Rwys | IFR | FBO | Links
Com | Nav | Svcs | Stats | Notes

Bismarck Aero Center
AirBoss

 
Area around KPMB (Pembina Municipal Airport)
 
Road maps at: MapQuest Bing Google
 
Aerial photo
WARNING: Photo may not be current or correct
Aerial photo of KPMB (Pembina Municipal Airport)
Photo taken 03-Aug-2006

Do you have a better or more recent aerial photo of Pembina Municipal Airport that you would like to share? If so, please send us your photo.

 
Sectional chart

 
Airport distance calculator
Flying to Pembina Municipal Airport? Find the distance to fly.

From to KPMB

Sunrise and sunset
Times for 04-Aug-2020
 Local
(UTC-5)
 Zulu
(UTC)
Morning civil twilight05:3210:32
Sunrise06:0811:08
Sunset21:0102:01
Evening civil twilight21:3802:38

Current date and time
Zulu (UTC)  04-Aug-2020 18:57:03
Local (UTC-5)  04-Aug-2020 13:57:03
 
METAR
KHCO 
17nm SE 
041835Z AUTO 16003KT 10SM CLR 26/11 A3009 RMK AO2
K2C8 
18nm SW 
041835Z AUTO 18010KT 10SM CLR 23/12 A3009 RMK AO2
K96D 
26nm W 
041835Z AUTO 15012KT 10SM CLR 23/11 A3009 RMK AO2
KGAF 
33nm S 
041835Z AUTO 17009KT 10SM CLR 23/12 A3012 RMK AO2 PWINO
TAF
NOTAMs
Click for the latest NOTAMs
NOTAMs are issued by the DoD/FAA and will open in a separate window not controlled by AirNav.

 

 
 

FBO, Fuel Providers, and Aircraft Ground Support

  
 Business Name 
 
 Contact 
 
 Services / Description 
 
Fuel Prices
 
Comments
  
Nord Aviation, Inc. 701-825-6615
no information available

If you are affiliated with Nord Aviation, Inc. and would like to show here your services, contact info, web link, logo, and more, click here
100LL
FS $4.00 
 Updated 04-Aug-2020
 
   write
FS=Full service
Update Fuel Prices
 

Would you like to see your business listed on this page?

 If your business provides an interesting product or service to pilots, flight crews, aircraft, or users of the Pembina Municipal Airport, you should consider listing it here.  To start the listing process, click on the button below
 
Add a business
 

Other Pages about Pembina Municipal Airport

Update a link
 
Copyright © AirNav, LLC. All rights reserved. Privacy Policy  Contact